Terminal Aerodrome Forecast
Issued by NWS

Home | Current Version | Previous Version | Text Only | Print | Product List | Glossary On
Versions: 1 2 3 4 5 6 7 8 9 10 11 12
000
FTUS45 KABQ 281700
TAFGUP
TAF
KGUP 281735Z 2818/2918 26006KT P6SM SCT050
     FM290200 VRB06KT P6SM SCT040 BKN200
     FM291500 06009KT P6SM FEW040 BKN150=

USA.gov is the U.S. government's official web portal to all federal, state and local government web resources and services.